Time;durP1;ratioP1;P1;durP2;ratioP2;P2;SDS_P1;SDS_P2;PMS_P1;PMS_P2;Temp;Humidity;BMP_temperature;BMP_pressure;BME280_temperature;BME280_humidity;BME280_pressure;Samples;Min_cycle;Max_cycle;Signal;HPM_P1;HPM_P2
2021/11/11 00:01:42;;;;;;;11.38;6.83;;;;;;;-0.90;100.00;100668.88;1719751;82;21548;-71
2021/11/11 00:04:18;;;;;;;11.38;6.95;;;;;;;-0.89;100.00;100661.21;1734592;82;21587;-71
2021/11/11 00:06:45;;;;;;;11.48;7.17;;;;;;;-0.90;100.00;100662.02;1740627;81;20922;-71
2021/11/11 00:09:14;;;;;;;15.00;6.87;;;;;;;-0.90;100.00;100659.81;1711744;82;21033;-71
2021/11/11 00:11:46;;;;;;;8.38;6.40;;;;;;;-0.89;100.00;100659.02;1743011;80;20932;-71
2021/11/11 00:14:15;;;;;;;11.70;6.90;;;;;;;-0.90;100.00;100658.52;1727597;82;21150;-72
2021/11/11 00:16:48;;;;;;;9.93;6.83;;;;;;;-0.87;100.00;100661.30;1712744;83;21058;-73
2021/11/11 00:19:17;;;;;;;11.60;7.00;;;;;;;-0.84;100.00;100664.98;1724010;82;20932;-72
2021/11/11 00:21:49;;;;;;;11.12;6.87;;;;;;;-0.83;100.00;100664.59;1693459;84;21422;-72
2021/11/11 00:24:17;;;;;;;10.68;6.75;;;;;;;-0.82;100.00;100663.39;1717195;82;20890;-72
2021/11/11 00:26:47;;;;;;;9.90;6.78;;;;;;;-0.77;100.00;100660.69;1737452;82;21519;-72
2021/11/11 00:29:16;;;;;;;11.08;6.67;;;;;;;-0.72;100.00;100656.69;1737345;82;21512;-72
2021/11/11 00:31:46;;;;;;;11.35;7.28;;;;;;;-0.71;100.00;100649.81;1756697;81;21560;-71
2021/11/11 00:34:18;;;;;;;9.65;6.60;;;;;;;-0.68;100.00;100652.19;1757532;81;21445;-71
2021/11/11 00:36:46;;;;;;;12.47;6.70;;;;;;;-0.67;100.00;100644.91;1725761;81;21040;-71
2021/11/11 00:39:16;;;;;;;9.90;6.95;;;;;;;-0.65;100.00;100645.90;1723250;83;21176;-72
2021/11/11 00:41:47;;;;;;;9.58;6.70;;;;;;;-0.62;100.00;100645.59;1745221;81;21576;-72
2021/11/11 00:44:17;;;;;;;9.50;6.15;;;;;;;-0.59;100.00;100636.71;1735446;82;21037;-72
2021/11/11 00:46:45;;;;;;;9.65;6.20;;;;;;;-0.64;100.00;100634.73;1718229;82;21485;-72
2021/11/11 00:49:14;;;;;;;8.28;5.92;;;;;;;-0.69;100.00;100637.44;1708491;82;21661;-72
2021/11/11 00:51:43;;;;;;;9.85;6.10;;;;;;;-0.74;100.00;100635.37;1708004;83;21311;-72
2021/11/11 00:54:11;;;;;;;9.68;6.83;;;;;;;-0.73;100.00;100641.05;1708006;82;21030;-72
2021/11/11 00:56:41;;;;;;;8.90;6.33;;;;;;;-0.68;100.00;100633.16;1732203;81;20993;-72
2021/11/11 00:59:11;;;;;;;6.95;5.72;;;;;;;-0.65;100.00;100637.23;1725173;82;21528;-72
2021/11/11 01:01:40;;;;;;;9.23;5.85;;;;;;;-0.59;100.00;100636.71;1718288;82;21027;-72
2021/11/11 01:04:09;;;;;;;7.95;6.03;;;;;;;-0.55;100.00;100639.58;1719283;82;22360;-73
2021/11/11 01:06:42;;;;;;;11.48;6.83;;;;;;;-0.50;100.00;100635.98;1719541;83;21548;-73
2021/11/11 01:09:12;;;;;;;9.88;6.35;;;;;;;-0.43;100.00;100633.89;1738850;82;20991;-74
2021/11/11 01:11:43;;;;;;;12.47;6.80;;;;;;;-0.36;100.00;100637.75;1748369;82;21513;-72
2021/11/11 01:14:15;;;;;;;12.58;6.55;;;;;;;-0.29;100.00;100628.64;1748867;82;21038;-72
2021/11/11 01:16:46;;;;;;;9.25;6.83;;;;;;;-0.26;100.00;100620.64;1754131;81;21987;-72
2021/11/11 01:19:15;;;;;;;9.80;7.50;;;;;;;-0.21;100.00;100614.44;1752810;81;22167;-73
2021/11/11 01:21:44;;;;;;;12.00;7.22;;;;;;;-0.21;100.00;100611.84;1763702;81;20978;-73
2021/11/11 01:24:15;;;;;;;10.18;6.80;;;;;;;-0.22;100.00;100615.23;1757460;81;20994;-72
2021/11/11 01:26:44;;;;;;;8.90;6.80;;;;;;;-0.24;100.00;100605.18;1767542;80;21510;-73
2021/11/11 01:29:18;;;;;;;10.55;6.78;;;;;;;-0.26;100.00;100606.78;1775961;80;21139;-73
2021/11/11 01:31:47;;;;;;;9.68;6.40;;;;;;;-0.30;100.00;100608.70;1742244;81;21504;-73
2021/11/11 01:34:20;;;;;;;10.63;6.60;;;;;;;-0.37;100.00;100608.33;1733889;81;20997;-73
2021/11/11 01:36:51;;;;;;;10.40;6.72;;;;;;;-0.43;100.00;100605.38;1732388;82;21117;-73
2021/11/11 01:39:28;;;;;;;8.98;6.22;;;;;;;-0.49;100.00;100601.08;1771088;80;20939;-73
2021/11/11 01:42:01;;;;;;;10.98;6.80;;;;;;;-0.47;100.00;100603.80;1741174;81;21164;-73
2021/11/11 01:44:30;;;;;;;8.85;6.47;;;;;;;-0.48;100.00;100603.27;1751141;81;21491;-73
2021/11/11 01:46:59;;;;;;;8.23;6.05;;;;;;;-0.49;100.00;100607.96;1770433;80;20957;-74
2021/11/11 01:49:27;;;;;;;10.58;6.47;;;;;;;-0.51;100.00;100613.45;1718922;83;21501;-74
2021/11/11 01:51:56;;;;;;;9.15;6.55;;;;;;;-0.54;100.00;100606.38;1733715;81;21452;-74
2021/11/11 01:54:27;;;;;;;8.20;6.20;;;;;;;-0.51;100.00;100610.46;1792607;80;21540;-74
2021/11/11 01:56:58;;;;;;;8.70;6.20;;;;;;;-0.55;100.00;100607.59;1733585;82;21021;-74
2021/11/11 01:59:30;;;;;;;8.23;6.22;;;;;;;-0.59;100.00;100600.03;1718296;82;21532;-74
2021/11/11 02:02:00;;;;;;;9.43;6.70;;;;;;;-0.61;100.00;100604.22;1730134;83;20993;-72
2021/11/11 02:04:32;;;;;;;10.80;6.83;;;;;;;-0.68;100.00;100601.66;1749083;81;21480;-72
2021/11/11 02:07:02;;;;;;;8.33;5.95;;;;;;;-0.74;100.00;100600.38;1745832;81;21158;-72
2021/11/11 02:09:35;;;;;;;9.13;6.47;;;;;;;-0.78;100.00;100597.11;1743206;82;20932;-72
2021/11/11 02:12:23;;;;;;;8.28;6.05;;;;;;;-0.80;100.00;100596.13;1742334;80;21521;-71
2021/11/11 02:14:54;;;;;;;11.53;6.37;;;;;;;-0.79;100.00;100585.86;1730299;81;20930;-71
2021/11/11 02:17:27;;;;;;;8.20;6.03;;;;;;;-0.79;100.00;100588.84;1747260;80;21421;-71
2021/11/11 02:20:16;;;;;;;10.07;6.70;;;;;;;-0.79;100.00;100588.44;1744083;80;21395;-70
2021/11/11 02:22:56;;;;;;;9.78;6.42;;;;;;;-0.80;100.00;100588.35;1722451;80;21540;-71
2021/11/11 02:25:28;;;;;;;9.65;6.53;;;;;;;-0.78;100.00;100588.05;1779543;80;20987;-71
2021/11/11 02:28:00;;;;;;;8.85;6.60;;;;;;;-0.82;100.00;100583.08;1748335;81;21007;-70
2021/11/11 02:30:30;;;;;;;14.20;6.65;;;;;;;-0.82;100.00;100582.18;1711035;82;21218;-70
2021/11/11 02:33:02;;;;;;;10.08;6.37;;;;;;;-0.81;100.00;100578.79;1747799;81;21144;-70
2021/11/11 02:35:30;;;;;;;8.48;5.97;;;;;;;-0.81;100.00;100581.38;1743908;80;21061;-70
2021/11/11 02:38:03;;;;;;;9.55;6.85;;;;;;;-0.81;100.00;100574.50;1751992;80;20943;-70
2021/11/11 02:40:34;;;;;;;9.65;7.05;;;;;;;-0.85;100.00;100573.82;1758140;80;21469;-70
2021/11/11 02:43:03;;;;;;;10.80;6.90;;;;;;;-0.93;100.00;100573.75;1767974;80;21496;-70
2021/11/11 02:45:36;;;;;;;10.63;6.70;;;;;;;-0.99;100.00;100577.22;1765549;80;21116;-71
2021/11/11 02:48:07;;;;;;;7.37;6.28;;;;;;;-1.08;100.00;100571.06;1773072;80;21014;-70
2021/11/11 02:50:38;;;;;;;10.55;6.83;;;;;;;-1.11;100.00;100568.69;1743836;81;20991;-72
2021/11/11 02:53:09;;;;;;;10.65;7.00;;;;;;;-1.16;100.00;100563.63;1746664;81;21539;-72
2021/11/11 15:17:23;;;;;;;5.72;3.62;;;;;;;6.60;99.64;99908.85;1728346;82;20909;-70
2021/11/11 15:20:06;;;;;;;9.75;4.55;;;;;;;6.54;99.73;99900.43;1760490;79;20993;-72
2021/11/11 16:24:46;;;;;;;50.52;22.50;;;;;;;5.08;100.00;99892.76;1734298;82;21522;-72
2021/11/11 16:27:28;;;;;;;39.70;22.37;;;;;;;5.09;100.00;99892.34;1730353;82;20936;-72
2021/11/11 16:30:08;;;;;;;37.38;20.60;;;;;;;5.11;100.00;99890.66;1731795;82;20927;-74
2021/11/11 16:32:36;;;;;;;32.23;18.55;;;;;;;5.14;100.00;99882.89;1729664;83;21152;-70
2021/11/11 16:35:06;;;;;;;39.38;22.73;;;;;;;5.10;100.00;99881.92;1714875;83;20925;-70
2021/11/11 16:37:36;;;;;;;37.90;20.92;;;;;;;5.01;100.00;99872.52;1718120;83;21422;-71
2021/11/11 16:40:07;;;;;;;31.20;19.20;;;;;;;4.89;100.00;99874.80;1709031;83;20951;-70
2021/11/11 16:42:36;;;;;;;37.78;18.50;;;;;;;4.80;100.00;99876.73;1700368;83;21073;-72
2021/11/11 16:45:05;;;;;;;28.87;15.83;;;;;;;4.73;100.00;99871.75;1699910;83;21153;-71
2021/11/11 16:47:34;;;;;;;33.58;13.43;;;;;;;4.67;100.00;99871.96;1748446;81;20937;-71
2021/11/11 16:50:02;;;;;;;27.42;12.78;;;;;;;4.60;100.00;99868.29;1757829;81;21020;-71
2021/11/11 16:52:32;;;;;;;17.52;11.90;;;;;;;4.54;100.00;99859.39;1731794;82;21582;-69
2021/11/11 16:54:59;;;;;;;20.72;11.83;;;;;;;4.49;100.00;99866.20;1730223;82;21011;-69
2021/11/11 16:57:29;;;;;;;21.37;12.55;;;;;;;4.45;100.00;99856.51;1729492;83;21907;-71
2021/11/11 16:59:57;;;;;;;24.40;12.00;;;;;;;4.39;100.00;99862.02;1707669;84;21026;-71
2021/11/11 17:02:24;;;;;;;22.17;13.43;;;;;;;4.36;100.00;99873.68;1709160;84;20918;-70
2021/11/11 17:04:52;;;;;;;21.82;13.60;;;;;;;4.34;100.00;99873.17;1697808;84;20979;-70
2021/11/11 17:07:21;;;;;;;22.42;13.90;;;;;;;4.32;100.00;99874.84;1709597;84;21541;-70
2021/11/11 17:09:48;;;;;;;25.43;14.07;;;;;;;4.29;100.00;99869.53;1710269;84;21133;-70
2021/11/11 17:12:17;;;;;;;29.25;14.65;;;;;;;4.25;100.00;99872.44;1709512;84;21030;-70
2021/11/11 17:14:47;;;;;;;29.05;13.62;;;;;;;4.21;100.00;99875.80;1710060;84;20954;-70
2021/11/11 17:17:14;;;;;;;19.30;11.55;;;;;;;4.17;100.00;99875.23;1713338;82;20986;-71
2021/11/11 17:19:43;;;;;;;18.95;11.75;;;;;;;4.17;100.00;99883.06;1713217;83;21025;-71
2021/11/11 17:22:14;;;;;;;25.50;13.48;;;;;;;4.19;100.00;99872.67;1683575;83;21140;-71
2021/11/11 17:24:44;;;;;;;19.52;11.68;;;;;;;4.21;100.00;99864.47;1709997;84;20862;-71
2021/11/11 17:27:31;;;;;;;23.38;11.18;;;;;;;4.18;100.00;99859.15;1709782;84;21433;-72
2021/11/11 17:30:18;;;;;;;20.50;11.08;;;;;;;4.08;100.00;99860.59;1692652;84;20971;-71
2021/11/11 17:32:48;;;;;;;139.57;18.67;;;;;;;4.00;100.00;99853.83;1732787;81;20962;-71
2021/11/11 17:35:18;;;;;;;37.48;12.07;;;;;;;3.94;100.00;99845.81;1729850;81;21788;-71
2021/11/11 17:37:46;;;;;;;22.93;10.55;;;;;;;3.89;100.00;99851.30;1729165;81;20862;-71
2021/11/11 17:40:17;;;;;;;16.17;11.48;;;;;;;3.87;100.00;99852.98;1689549;84;21436;-72
2021/11/11 17:42:51;;;;;;;24.43;16.07;;;;;;;3.85;100.00;99855.96;1659562;85;20969;-72
2021/11/11 17:45:30;;;;;;;24.30;15.68;;;;;;;3.84;100.00;99849.39;1665647;84;21515;-70
2021/11/11 17:48:05;;;;;;;22.32;14.38;;;;;;;3.84;100.00;99855.91;1709473;84;22015;-71
2021/11/11 17:50:42;;;;;;;24.95;13.10;;;;;;;3.84;100.00;99845.47;1682494;84;21374;-72
2021/11/11 17:53:12;;;;;;;19.82;12.68;;;;;;;3.87;100.00;99838.63;1680862;84;21218;-74
2021/11/11 17:55:48;;;;;;;21.77;13.03;;;;;;;3.89;100.00;99843.47;1681411;84;20931;-72
2021/11/11 17:58:20;;;;;;;21.02;11.78;;;;;;;3.91;100.00;99840.91;1681158;84;20916;-73
2021/11/11 18:00:54;;;;;;;17.85;11.05;;;;;;;3.91;100.00;99842.22;1681042;84;21175;-74
2021/11/11 18:03:25;;;;;;;17.27;10.53;;;;;;;3.91;100.00;99843.52;1680279;84;20916;-72
2021/11/11 18:08:50;;;;;;;17.10;10.03;;;;;;;3.94;100.00;99840.59;1678623;84;21456;-70
2021/11/11 18:11:18;;;;;;;17.95;11.10;;;;;;;3.95;100.00;99834.95;1731276;81;21013;-71
2021/11/11 18:13:59;;;;;;;22.98;10.28;;;;;;;3.93;100.00;99832.71;1738093;81;21426;-72
2021/11/11 18:16:26;;;;;;;17.20;10.53;;;;;;;3.87;100.00;99833.41;1709467;82;21504;-72
2021/11/11 18:18:53;;;;;;;13.83;10.13;;;;;;;3.77;100.00;99825.67;1733084;82;21481;-71
2021/11/11 18:21:21;;;;;;;16.65;9.05;;;;;;;3.69;100.00;99825.85;1733034;81;21496;-73
2021/11/11 18:23:50;;;;;;;15.13;9.78;;;;;;;3.61;100.00;99819.92;1700971;83;21580;-74
2021/11/11 18:26:22;;;;;;;14.80;9.43;;;;;;;3.53;100.00;99822.70;1700643;83;20939;-73
2021/11/11 18:28:55;;;;;;;17.35;11.97;;;;;;;3.46;100.00;99819.90;1701004;83;20963;-73
2021/11/11 18:31:27;;;;;;;;;;;;;;;3.42;100.00;99821.05;1707345;83;21039;-73
2021/11/11 18:34:58;;;;;;;24.45;14.45;;;;;;;3.36;100.00;99811.30;1712756;83;20262;-71
2021/11/11 18:36:46;;;;;;;19.32;11.93;;;;;;;3.28;100.00;99810.55;1687410;83;21477;-72
2021/11/11 18:39:17;;;;;;;15.20;9.70;;;;;;;3.17;100.00;99804.98;1711630;83;21508;-72
2021/11/11 18:41:45;;;;;;;14.85;8.53;;;;;;;3.10;100.00;99812.13;1699894;83;20869;-74
2021/11/11 18:44:15;;;;;;;15.25;8.15;;;;;;;3.04;100.00;99810.20;1701076;83;21042;-72
2021/11/11 18:46:48;;;;;;;13.15;7.45;;;;;;;3.01;100.00;99806.60;1700735;83;21023;-71
2021/11/11 18:49:15;;;;;;;9.93;7.08;;;;;;;2.96;100.00;99809.05;1701132;83;20896;-71
2021/11/11 18:51:45;;;;;;;15.53;7.28;;;;;;;2.92;100.00;99811.08;1700758;83;21124;-71
2021/11/11 18:54:12;;;;;;;13.98;7.87;;;;;;;2.88;100.00;99810.92;1713148;83;21039;-72
2021/11/11 18:56:42;;;;;;;14.33;7.40;;;;;;;2.85;100.00;99816.91;1712876;83;21047;-71
2021/11/11 18:59:18;;;;;;;11.63;6.95;;;;;;;2.85;100.00;99820.82;1691402;83;20940;-72
2021/11/11 19:01:46;;;;;;;12.70;6.83;;;;;;;2.89;100.00;99821.81;1691360;84;21443;-71
2021/11/11 19:04:19;;;;;;;11.00;6.25;;;;;;;2.93;100.00;99828.48;1694495;83;21092;-71
2021/11/11 19:06:50;;;;;;;10.58;6.72;;;;;;;3.01;100.00;99823.55;1691867;82;21481;-71
2021/11/11 19:09:18;;;;;;;23.35;9.13;;;;;;;3.08;100.00;99815.98;1700423;83;20950;-72
2021/11/11 19:11:53;;;;;;;39.05;15.00;;;;;;;3.16;100.00;99808.42;1697668;83;20909;-72
2021/11/11 19:14:21;;;;;;;18.23;8.70;;;;;;;3.23;100.00;99808.21;1703608;83;20891;-75
2021/11/11 19:16:48;;;;;;;14.43;7.05;;;;;;;3.29;100.00;99805.39;1699159;83;21203;-74
2021/11/11 19:19:19;;;;;;;10.20;5.40;;;;;;;3.32;100.00;99808.55;1708331;82;21026;-71
2021/11/11 19:21:47;;;;;;;11.15;5.22;;;;;;;3.34;100.00;99808.18;1729960;81;21059;-72
2021/11/11 19:24:15;;;;;;;17.07;5.72;;;;;;;3.36;100.00;99807.81;1715254;81;21005;-72
2021/11/11 19:26:43;;;;;;;10.43;6.08;;;;;;;3.40;100.00;99803.16;1715682;81;21111;-71
2021/11/11 19:29:11;;;;;;;12.28;5.83;;;;;;;3.43;100.00;99802.84;1722236;81;21171;-72
2021/11/11 19:31:40;;;;;;;10.75;5.80;;;;;;;3.47;100.00;99798.61;1736468;81;21536;-72
2021/11/11 19:34:16;;;;;;;11.83;5.80;;;;;;;3.43;100.00;99794.14;1707499;82;20922;-72
2021/11/11 19:37:03;;;;;;;10.45;5.47;;;;;;;3.36;100.00;99789.14;1735165;81;22247;-71
2021/11/11 19:42:11;;;;;;;9.68;5.03;;;;;;;3.25;100.00;99781.77;1711915;82;21253;-72
2021/11/11 19:58:12;;;;;;;14.20;7.22;;;;;;;2.83;100.00;99772.95;1720539;82;20985;-72
2021/11/11 20:06:08;;;;;;;14.38;8.03;;;;;;;2.84;100.00;99755.22;1714378;83;21451;-72
2021/11/11 20:16:32;;;;;;;14.25;9.20;;;;;;;2.86;100.00;99761.78;1706084;83;21538;-71
2021/11/11 20:36:11;;;;;;;12.98;8.28;;;;;;;2.88;100.00;99747.08;1698809;83;21837;-71
2021/11/11 20:37:59;;;;;;;12.60;8.25;;;;;;;2.86;100.00;99743.13;1677520;83;20991;-71
2021/11/11 20:40:35;;;;;;;12.80;6.03;;;;;;;2.85;100.00;99736.14;1703123;83;21058;-71
2021/11/11 20:45:54;;;;;;;12.47;7.67;;;;;;;2.82;100.00;99738.20;1702554;83;21010;-72
2021/11/11 21:01:15;;;;;;;12.47;7.30;;;;;;;2.79;100.00;99705.52;1687866;85;21197;-72
2021/11/11 21:04:00;;;;;;;18.70;7.65;;;;;;;2.78;100.00;99701.56;1688114;84;20955;-72
2021/11/11 21:06:30;;;;;;;11.30;6.03;;;;;;;2.78;100.00;99695.05;1687721;84;21015;-73
2021/11/11 21:09:46;;;;;;;9.65;5.87;;;;;;;2.77;100.00;99695.47;1687851;83;21585;-72
2021/11/11 21:11:34;;;;;;;10.30;5.80;;;;;;;2.78;100.00;99695.94;1668435;85;20892;-70
2021/11/11 21:14:09;;;;;;;10.65;6.47;;;;;;;2.79;100.00;99697.70;1687995;84;21200;-71
2021/11/11 21:16:40;;;;;;;10.68;5.85;;;;;;;2.84;100.00;99708.31;1687412;85;20915;-71
2021/11/11 21:19:14;;;;;;;11.33;5.78;;;;;;;2.87;100.00;99699.30;1687883;84;21032;-72
2021/11/11 21:22:01;;;;;;;12.18;5.53;;;;;;;2.89;100.00;99700.66;1687742;84;20959;-71
2021/11/11 21:24:31;;;;;;;10.63;6.92;;;;;;;2.91;100.00;99702.89;1688005;84;20871;-71
2021/11/11 21:27:00;;;;;;;9.85;6.72;;;;;;;2.92;100.00;99702.05;1688039;85;21933;-71
2021/11/11 21:29:29;;;;;;;11.57;7.35;;;;;;;2.92;100.00;99695.54;1687797;85;20966;-71
2021/11/11 21:31:59;;;;;;;11.45;7.05;;;;;;;2.94;100.00;99704.30;1687907;84;21042;-72
2021/11/11 21:34:45;;;;;;;12.43;7.67;;;;;;;2.94;100.00;99692.15;1688002;84;21094;-71
2021/11/11 21:37:18;;;;;;;14.05;8.70;;;;;;;2.94;100.00;99688.66;1684961;85;21352;-72
2021/11/11 21:42:35;;;;;;;11.70;6.60;;;;;;;2.87;100.00;99674.96;1662552;85;21431;-72
2021/11/11 21:45:05;;;;;;;13.98;5.55;;;;;;;2.80;100.00;99676.03;1673983;85;20953;-71
2021/11/11 21:47:32;;;;;;;8.63;5.50;;;;;;;2.76;100.00;99674.16;1674169;84;20920;-72
2021/11/11 21:50:00;;;;;;;12.80;6.55;;;;;;;2.72;100.00;99669.68;1646647;86;20968;-72
2021/11/11 21:52:30;;;;;;;11.45;5.90;;;;;;;2.69;100.00;99676.52;1698254;83;21135;-71
2021/11/11 21:55:09;;;;;;;9.50;5.70;;;;;;;2.65;100.00;99678.55;1698054;84;21008;-71
2021/11/11 22:20:01;;;;;;;9.95;5.90;;;;;;;2.64;100.00;99665.05;1728931;83;21170;-71
2021/11/11 22:27:37;;;;;;;11.28;6.42;;;;;;;2.58;100.00;99657.92;1728823;83;20988;-72
2021/11/11 22:32:52;;;;;;;10.48;6.50;;;;;;;2.55;100.00;99650.42;1728912;83;21058;-71
2021/11/11 22:35:24;;;;;;;11.80;5.92;;;;;;;2.55;100.00;99642.61;1728975;83;21012;-71
2021/11/11 22:37:50;;;;;;;8.38;6.10;;;;;;;2.51;100.00;99635.11;1728593;81;21407;-71
2021/11/11 22:40:20;;;;;;;10.53;6.50;;;;;;;2.47;100.00;99646.27;1728647;83;21431;-71
2021/11/11 22:42:47;;;;;;;11.28;6.50;;;;;;;2.43;100.00;99646.58;1729186;83;20988;-71
2021/11/11 22:45:15;;;;;;;12.20;6.60;;;;;;;2.40;100.00;99639.08;1728796;82;21179;-71
2021/11/11 22:47:44;;;;;;;9.08;6.37;;;;;;;2.38;100.00;99635.12;1728744;82;20904;-71
2021/11/11 22:50:15;;;;;;;10.13;5.87;;;;;;;2.39;100.00;99634.70;1721391;83;20987;-71
2021/11/11 22:52:44;;;;;;;10.80;6.58;;;;;;;2.34;100.00;99629.30;1707540;84;21384;-70
2021/11/11 22:57:45;;;;;;;10.05;6.75;;;;;;;2.31;100.00;99640.03;1707510;83;21176;-70
2021/11/11 23:03:00;;;;;;;11.93;6.60;;;;;;;2.27;100.00;99637.73;1704975;83;20944;-70
2021/11/11 23:05:41;;;;;;;9.13;6.17;;;;;;;2.19;100.00;99632.27;1691858;84;21476;-71
2021/11/11 23:19:02;;;;;;;10.32;7.05;;;;;;;1.84;100.00;99631.41;1672854;85;20975;-71
2021/11/11 23:24:07;;;;;;;12.47;7.42;;;;;;;1.78;100.00;99628.59;1684319;84;21562;-71
2021/11/11 23:34:33;;;;;;;11.15;7.12;;;;;;;1.62;100.00;99627.16;1684367;84;21431;-71
2021/11/11 23:37:01;;;;;;;11.75;7.30;;;;;;;1.62;100.00;99624.97;1684440;85;21128;-71
2021/11/11 23:39:32;;;;;;;10.95;6.80;;;;;;;1.61;100.00;99618.88;1684221;84;21431;-72
2021/11/11 23:42:00;;;;;;;10.78;7.40;;;;;;;1.63;100.00;99617.22;1684636;84;20912;-71
2021/11/11 23:44:32;;;;;;;12.37;7.40;;;;;;;1.66;100.00;99615.15;1684459;83;20916;-72
2021/11/11 23:46:58;;;;;;;12.37;7.80;;;;;;;1.71;100.00;99608.40;1684127;84;21020;-71
2021/11/11 23:49:41;;;;;;;13.38;8.75;;;;;;;1.75;100.00;99620.27;1690908;83;21105;-72
